sensor_id;sensor_type;location;lat;lon;timestamp;temperature;humidity
39023;DHT22;25908;51.984;5.928;2022-11-20T00:00:45;1.40;93.80
39023;DHT22;25908;51.984;5.928;2022-11-20T00:03:11;1.40;93.90
39023;DHT22;25908;51.984;5.928;2022-11-20T00:05:37;1.30;93.90
39023;DHT22;25908;51.984;5.928;2022-11-20T00:08:03;1.30;94.10
39023;DHT22;25908;51.984;5.928;2022-11-20T00:10:28;1.30;94.00
39023;DHT22;25908;51.984;5.928;2022-11-20T00:12:54;1.30;94.30
39023;DHT22;25908;51.984;5.928;2022-11-20T00:15:19;1.30;94.40
39023;DHT22;25908;51.984;5.928;2022-11-20T00:17:45;1.20;94.60
39023;DHT22;25908;51.984;5.928;2022-11-20T00:20:11;1.20;95.00
39023;DHT22;25908;51.984;5.928;2022-11-20T00:22:36;1.10;95.10
39023;DHT22;25908;51.984;5.928;2022-11-20T00:25:02;1.10;95.20
39023;DHT22;25908;51.984;5.928;2022-11-20T00:27:27;1.10;95.10
39023;DHT22;25908;51.984;5.928;2022-11-20T00:29:53;1.10;95.20
39023;DHT22;25908;51.984;5.928;2022-11-20T00:32:19;1.10;95.30
39023;DHT22;25908;51.984;5.928;2022-11-20T00:34:44;1.10;95.30
39023;DHT22;25908;51.984;5.928;2022-11-20T00:37:10;1.10;95.30
39023;DHT22;25908;51.984;5.928;2022-11-20T00:39:35;1.10;95.10
39023;DHT22;25908;51.984;5.928;2022-11-20T00:42:01;1.10;95.00
39023;DHT22;25908;51.984;5.928;2022-11-20T00:44:27;1.10;94.90
39023;DHT22;25908;51.984;5.928;2022-11-20T00:46:53;1.10;94.90
39023;DHT22;25908;51.984;5.928;2022-11-20T00:49:19;1.10;94.90
39023;DHT22;25908;51.984;5.928;2022-11-20T00:51:44;1.00;94.90
39023;DHT22;25908;51.984;5.928;2022-11-20T00:54:10;1.10;95.00
39023;DHT22;25908;51.984;5.928;2022-11-20T00:56:36;1.00;95.20
39023;DHT22;25908;51.984;5.928;2022-11-20T00:59:01;1.00;95.20
39023;DHT22;25908;51.984;5.928;2022-11-20T01:01:27;1.00;95.20
39023;DHT22;25908;51.984;5.928;2022-11-20T01:03:56;1.00;95.20
39023;DHT22;25908;51.984;5.928;2022-11-20T01:06:25;1.00;95.40
39023;DHT22;25908;51.984;5.928;2022-11-20T01:08:53;1.00;95.10
39023;DHT22;25908;51.984;5.928;2022-11-20T01:11:29;1.00;95.00
39023;DHT22;25908;51.984;5.928;2022-11-20T01:13:56;1.00;95.10
39023;DHT22;25908;51.984;5.928;2022-11-20T01:16:24;1.00;95.00
39023;DHT22;25908;51.984;5.928;2022-11-20T01:18:52;1.00;95.00
39023;DHT22;25908;51.984;5.928;2022-11-20T01:21:20;0.90;95.10
39023;DHT22;25908;51.984;5.928;2022-11-20T01:23:47;1.00;95.10
39023;DHT22;25908;51.984;5.928;2022-11-20T01:26:17;1.00;95.10
39023;DHT22;25908;51.984;5.928;2022-11-20T01:28:43;0.90;95.10
39023;DHT22;25908;51.984;5.928;2022-11-20T01:31:13;0.90;95.20
39023;DHT22;25908;51.984;5.928;2022-11-20T01:33:39;0.90;95.20
39023;DHT22;25908;51.984;5.928;2022-11-20T01:36:07;0.90;95.10
39023;DHT22;25908;51.984;5.928;2022-11-20T01:38:32;1.00;95.10
39023;DHT22;25908;51.984;5.928;2022-11-20T01:40:58;0.90;95.20
39023;DHT22;25908;51.984;5.928;2022-11-20T01:43:24;0.90;95.10
39023;DHT22;25908;51.984;5.928;2022-11-20T01:48:20;0.90;95.10
39023;DHT22;25908;51.984;5.928;2022-11-20T01:50:48;0.90;95.00
39023;DHT22;25908;51.984;5.928;2022-11-20T01:53:16;0.90;95.00
39023;DHT22;25908;51.984;5.928;2022-11-20T01:55:49;0.90;95.00
39023;DHT22;25908;51.984;5.928;2022-11-20T01:58:17;0.90;95.00
39023;DHT22;25908;51.984;5.928;2022-11-20T02:00:44;0.80;95.10
39023;DHT22;25908;51.984;5.928;2022-11-20T02:03:13;0.80;95.30
39023;DHT22;25908;51.984;5.928;2022-11-20T02:08:32;0.80;95.20
39023;DHT22;25908;51.984;5.928;2022-11-20T02:10:58;0.80;95.30
39023;DHT22;25908;51.984;5.928;2022-11-20T02:13:23;0.70;95.60
39023;DHT22;25908;51.984;5.928;2022-11-20T02:16:23;0.70;95.80
39023;DHT22;25908;51.984;5.928;2022-11-20T02:18:50;0.70;95.80
39023;DHT22;25908;51.984;5.928;2022-11-20T02:21:31;0.70;95.90
39023;DHT22;25908;51.984;5.928;2022-11-20T02:23:59;0.60;96.10
39023;DHT22;25908;51.984;5.928;2022-11-20T02:26:26;0.60;96.20
39023;DHT22;25908;51.984;5.928;2022-11-20T02:28:53;0.50;96.30
39023;DHT22;25908;51.984;5.928;2022-11-20T02:31:20;0.60;96.40
39023;DHT22;25908;51.984;5.928;2022-11-20T02:33:45;0.60;96.40
39023;DHT22;25908;51.984;5.928;2022-11-20T02:36:14;0.50;96.60
39023;DHT22;25908;51.984;5.928;2022-11-20T02:38:40;0.50;96.70
39023;DHT22;25908;51.984;5.928;2022-11-20T02:41:06;0.50;96.60
39023;DHT22;25908;51.984;5.928;2022-11-20T02:43:32;0.50;96.50
39023;DHT22;25908;51.984;5.928;2022-11-20T02:45:57;0.50;96.40
39023;DHT22;25908;51.984;5.928;2022-11-20T02:48:23;0.50;96.20
39023;DHT22;25908;51.984;5.928;2022-11-20T02:50:48;0.50;96.20
39023;DHT22;25908;51.984;5.928;2022-11-20T02:53:14;0.40;96.40
39023;DHT22;25908;51.984;5.928;2022-11-20T02:55:39;0.40;96.40
39023;DHT22;25908;51.984;5.928;2022-11-20T02:58:05;0.40;96.30
39023;DHT22;25908;51.984;5.928;2022-11-20T03:00:31;0.40;96.30
39023;DHT22;25908;51.984;5.928;2022-11-20T03:02:57;0.30;96.30
39023;DHT22;25908;51.984;5.928;2022-11-20T03:05:22;0.30;96.50
39023;DHT22;25908;51.984;5.928;2022-11-20T03:07:48;0.30;96.60
39023;DHT22;25908;51.984;5.928;2022-11-20T03:10:14;0.30;96.60
39023;DHT22;25908;51.984;5.928;2022-11-20T03:12:39;0.30;96.60
39023;DHT22;25908;51.984;5.928;2022-11-20T03:15:05;0.30;96.50
39023;DHT22;25908;51.984;5.928;2022-11-20T03:17:31;0.30;96.60
39023;DHT22;25908;51.984;5.928;2022-11-20T03:19:57;0.30;96.60
39023;DHT22;25908;51.984;5.928;2022-11-20T03:22:22;0.20;96.40
39023;DHT22;25908;51.984;5.928;2022-11-20T03:24:48;0.20;96.40
39023;DHT22;25908;51.984;5.928;2022-11-20T03:27:13;0.30;96.60
39023;DHT22;25908;51.984;5.928;2022-11-20T03:29:39;0.30;96.60
39023;DHT22;25908;51.984;5.928;2022-11-20T03:32:05;0.30;96.60
39023;DHT22;25908;51.984;5.928;2022-11-20T03:34:30;0.20;97.00
39023;DHT22;25908;51.984;5.928;2022-11-20T03:36:56;0.20;96.90
39023;DHT22;25908;51.984;5.928;2022-11-20T03:39:21;0.20;96.90
39023;DHT22;25908;51.984;5.928;2022-11-20T03:41:47;0.20;96.90
39023;DHT22;25908;51.984;5.928;2022-11-20T03:44:12;0.10;97.00
39023;DHT22;25908;51.984;5.928;2022-11-20T03:46:38;0.10;97.10
39023;DHT22;25908;51.984;5.928;2022-11-20T03:49:04;0.10;97.20
39023;DHT22;25908;51.984;5.928;2022-11-20T03:51:35;0.00;97.40
39023;DHT22;25908;51.984;5.928;2022-11-20T03:54:02;0.00;97.50
39023;DHT22;25908;51.984;5.928;2022-11-20T03:56:33;0.00;97.50
39023;DHT22;25908;51.984;5.928;2022-11-20T03:58:59;0.00;97.30
39023;DHT22;25908;51.984;5.928;2022-11-20T04:01:27;0.00;97.20
39023;DHT22;25908;51.984;5.928;2022-11-20T04:03:54;0.00;97.10
39023;DHT22;25908;51.984;5.928;2022-11-20T04:06:22;0.00;97.30
39023;DHT22;25908;51.984;5.928;2022-11-20T04:08:48;-0.10;97.30
39023;DHT22;25908;51.984;5.928;2022-11-20T04:11:19;-0.10;97.30
39023;DHT22;25908;51.984;5.928;2022-11-20T04:13:53;-0.10;97.20
39023;DHT22;25908;51.984;5.928;2022-11-20T04:16:20;-0.10;97.10
39023;DHT22;25908;51.984;5.928;2022-11-20T04:18:45;-0.10;97.30
39023;DHT22;25908;51.984;5.928;2022-11-20T04:21:12;-0.10;97.10
39023;DHT22;25908;51.984;5.928;2022-11-20T04:23:38;-0.10;97.10
39023;DHT22;25908;51.984;5.928;2022-11-20T04:26:08;-0.10;97.30
39023;DHT22;25908;51.984;5.928;2022-11-20T04:28:34;-0.10;97.30
39023;DHT22;25908;51.984;5.928;2022-11-20T04:33:29;-0.10;97.10
39023;DHT22;25908;51.984;5.928;2022-11-20T04:35:55;-0.10;97.40
39023;DHT22;25908;51.984;5.928;2022-11-20T04:38:20;-0.10;97.70
39023;DHT22;25908;51.984;5.928;2022-11-20T04:40:46;-0.10;97.70
39023;DHT22;25908;51.984;5.928;2022-11-20T04:43:11;-0.20;97.60
39023;DHT22;25908;51.984;5.928;2022-11-20T04:45:37;-0.20;97.70
39023;DHT22;25908;51.984;5.928;2022-11-20T04:48:02;-0.20;97.70
39023;DHT22;25908;51.984;5.928;2022-11-20T04:50:28;-0.20;97.80
39023;DHT22;25908;51.984;5.928;2022-11-20T04:52:53;-0.20;97.80
39023;DHT22;25908;51.984;5.928;2022-11-20T04:55:19;-0.30;97.60
39023;DHT22;25908;51.984;5.928;2022-11-20T04:57:44;-0.30;97.70
39023;DHT22;25908;51.984;5.928;2022-11-20T05:00:10;-0.30;97.70
39023;DHT22;25908;51.984;5.928;2022-11-20T05:02:36;-0.30;97.70
39023;DHT22;25908;51.984;5.928;2022-11-20T05:05:02;-0.30;97.50
39023;DHT22;25908;51.984;5.928;2022-11-20T05:07:28;-0.30;97.60
39023;DHT22;25908;51.984;5.928;2022-11-20T05:09:53;-0.30;97.60
39023;DHT22;25908;51.984;5.928;2022-11-20T05:12:19;-0.30;97.60
39023;DHT22;25908;51.984;5.928;2022-11-20T05:14:44;-0.40;97.50
39023;DHT22;25908;51.984;5.928;2022-11-20T05:17:11;-0.30;97.60
39023;DHT22;25908;51.984;5.928;2022-11-20T05:19:37;-0.30;97.60
39023;DHT22;25908;51.984;5.928;2022-11-20T05:22:04;-0.30;97.60
39023;DHT22;25908;51.984;5.928;2022-11-20T05:24:30;-0.30;97.80
39023;DHT22;25908;51.984;5.928;2022-11-20T05:26:55;-0.30;97.90
39023;DHT22;25908;51.984;5.928;2022-11-20T05:29:21;-0.30;98.00
39023;DHT22;25908;51.984;5.928;2022-11-20T05:31:46;-0.30;98.20
39023;DHT22;25908;51.984;5.928;2022-11-20T05:34:12;-0.30;98.00
39023;DHT22;25908;51.984;5.928;2022-11-20T05:36:37;-0.20;97.80
39023;DHT22;25908;51.984;5.928;2022-11-20T05:39:03;-0.20;97.60
39023;DHT22;25908;51.984;5.928;2022-11-20T05:41:29;-0.30;97.50
39023;DHT22;25908;51.984;5.928;2022-11-20T05:43:56;-0.30;97.90
39023;DHT22;25908;51.984;5.928;2022-11-20T05:46:22;-0.30;98.20
39023;DHT22;25908;51.984;5.928;2022-11-20T05:48:47;-0.40;98.00
39023;DHT22;25908;51.984;5.928;2022-11-20T05:51:16;-0.30;98.00
39023;DHT22;25908;51.984;5.928;2022-11-20T05:53:41;-0.30;98.10
39023;DHT22;25908;51.984;5.928;2022-11-20T05:56:10;-0.30;98.00
39023;DHT22;25908;51.984;5.928;2022-11-20T05:58:36;-0.40;98.00
39023;DHT22;25908;51.984;5.928;2022-11-20T06:01:14;-0.40;97.90
39023;DHT22;25908;51.984;5.928;2022-11-20T06:03:41;-0.40;97.90
39023;DHT22;25908;51.984;5.928;2022-11-20T06:06:08;-0.50;97.90
39023;DHT22;25908;51.984;5.928;2022-11-20T06:08:33;-0.50;98.00
39023;DHT22;25908;51.984;5.928;2022-11-20T06:11:03;-0.50;97.90
39023;DHT22;25908;51.984;5.928;2022-11-20T06:13:29;-0.50;97.90
39023;DHT22;25908;51.984;5.928;2022-11-20T06:15:55;-0.60;97.80
39023;DHT22;25908;51.984;5.928;2022-11-20T06:18:20;-0.60;97.70
39023;DHT22;25908;51.984;5.928;2022-11-20T06:20:47;-0.60;97.70
39023;DHT22;25908;51.984;5.928;2022-11-20T06:23:13;-0.60;97.70
39023;DHT22;25908;51.984;5.928;2022-11-20T06:25:42;-0.60;97.80
39023;DHT22;25908;51.984;5.928;2022-11-20T06:28:09;-0.60;97.70
39023;DHT22;25908;51.984;5.928;2022-11-20T06:30:35;-0.60;97.60
39023;DHT22;25908;51.984;5.928;2022-11-20T06:33:01;-0.60;97.60
39023;DHT22;25908;51.984;5.928;2022-11-20T06:35:26;-0.60;97.60
39023;DHT22;25908;51.984;5.928;2022-11-20T06:37:52;-0.60;97.80
39023;DHT22;25908;51.984;5.928;2022-11-20T06:40:17;-0.60;98.10
39023;DHT22;25908;51.984;5.928;2022-11-20T06:42:43;-0.60;98.20
39023;DHT22;25908;51.984;5.928;2022-11-20T06:45:09;-0.60;98.10
39023;DHT22;25908;51.984;5.928;2022-11-20T06:47:35;-0.70;98.00
39023;DHT22;25908;51.984;5.928;2022-11-20T06:50:00;-0.70;98.00
39023;DHT22;25908;51.984;5.928;2022-11-20T06:52:26;-0.70;98.00
39023;DHT22;25908;51.984;5.928;2022-11-20T06:54:51;-0.70;97.80
39023;DHT22;25908;51.984;5.928;2022-11-20T06:57:17;-0.70;97.90
39023;DHT22;25908;51.984;5.928;2022-11-20T06:59:42;-0.70;98.10
39023;DHT22;25908;51.984;5.928;2022-11-20T07:02:12;-0.70;98.00
39023;DHT22;25908;51.984;5.928;2022-11-20T07:04:38;-0.70;98.00
39023;DHT22;25908;51.984;5.928;2022-11-20T07:07:04;-0.70;98.00
39023;DHT22;25908;51.984;5.928;2022-11-20T07:09:31;-0.80;98.30
39023;DHT22;25908;51.984;5.928;2022-11-20T07:11:57;-0.70;98.50
39023;DHT22;25908;51.984;5.928;2022-11-20T07:14:22;-0.80;98.40
39023;DHT22;25908;51.984;5.928;2022-11-20T07:16:48;-0.80;98.40
39023;DHT22;25908;51.984;5.928;2022-11-20T07:19:13;-0.70;98.70
39023;DHT22;25908;51.984;5.928;2022-11-20T07:21:39;-0.70;98.80
39023;DHT22;25908;51.984;5.928;2022-11-20T07:24:04;-0.80;98.80
39023;DHT22;25908;51.984;5.928;2022-11-20T07:26:30;-0.70;99.00
39023;DHT22;25908;51.984;5.928;2022-11-20T07:28:55;-0.70;99.00
39023;DHT22;25908;51.984;5.928;2022-11-20T07:31:21;-0.70;98.90
39023;DHT22;25908;51.984;5.928;2022-11-20T07:33:47;-0.70;98.80
39023;DHT22;25908;51.984;5.928;2022-11-20T07:36:12;-0.70;98.90
39023;DHT22;25908;51.984;5.928;2022-11-20T07:38:38;-0.60;99.00
39023;DHT22;25908;51.984;5.928;2022-11-20T07:41:04;-0.60;99.00
39023;DHT22;25908;51.984;5.928;2022-11-20T07:43:30;-0.60;99.10
39023;DHT22;25908;51.984;5.928;2022-11-20T07:45:56;-0.60;99.20
39023;DHT22;25908;51.984;5.928;2022-11-20T07:48:23;-0.60;99.40
39023;DHT22;25908;51.984;5.928;2022-11-20T07:50:48;-0.50;99.40
39023;DHT22;25908;51.984;5.928;2022-11-20T07:53:14;-0.50;99.60
39023;DHT22;25908;51.984;5.928;2022-11-20T07:55:42;-0.50;99.60
39023;DHT22;25908;51.984;5.928;2022-11-20T07:58:07;-0.40;99.80
39023;DHT22;25908;51.984;5.928;2022-11-20T08:00:33;-0.40;99.90
39023;DHT22;25908;51.984;5.928;2022-11-20T08:02:58;-0.40;99.90
39023;DHT22;25908;51.984;5.928;2022-11-20T08:05:24;-0.40;99.90
39023;DHT22;25908;51.984;5.928;2022-11-20T08:07:49;-0.30;99.90
39023;DHT22;25908;51.984;5.928;2022-11-20T08:10:15;-0.30;99.90
39023;DHT22;25908;51.984;5.928;2022-11-20T08:12:46;-0.20;99.90
39023;DHT22;25908;51.984;5.928;2022-11-20T08:15:30;-0.20;99.90
39023;DHT22;25908;51.984;5.928;2022-11-20T08:18:05;-0.10;99.90
39023;DHT22;25908;51.984;5.928;2022-11-20T08:20:31;0.00;99.90
39023;DHT22;25908;51.984;5.928;2022-11-20T08:23:01;0.00;99.80
39023;DHT22;25908;51.984;5.928;2022-11-20T08:25:28;0.00;99.80
39023;DHT22;25908;51.984;5.928;2022-11-20T08:28:00;0.10;99.70
39023;DHT22;25908;51.984;5.928;2022-11-20T08:30:26;0.10;99.70
39023;DHT22;25908;51.984;5.928;2022-11-20T08:32:53;0.20;99.70
39023;DHT22;25908;51.984;5.928;2022-11-20T08:35:19;0.30;99.80
39023;DHT22;25908;51.984;5.928;2022-11-20T08:37:48;0.40;99.70
39023;DHT22;25908;51.984;5.928;2022-11-20T08:40:13;0.40;99.30
39023;DHT22;25908;51.984;5.928;2022-11-20T08:42:47;0.50;99.40
39023;DHT22;25908;51.984;5.928;2022-11-20T08:45:12;0.60;99.50
39023;DHT22;25908;51.984;5.928;2022-11-20T08:47:38;0.60;99.30
39023;DHT22;25908;51.984;5.928;2022-11-20T08:50:04;0.70;99.10
39023;DHT22;25908;51.984;5.928;2022-11-20T08:52:29;0.70;99.10
39023;DHT22;25908;51.984;5.928;2022-11-20T08:54:55;0.70;99.10
39023;DHT22;25908;51.984;5.928;2022-11-20T08:57:20;0.80;99.00
39023;DHT22;25908;51.984;5.928;2022-11-20T08:59:46;0.80;99.00
39023;DHT22;25908;51.984;5.928;2022-11-20T09:02:12;1.00;99.00
39023;DHT22;25908;51.984;5.928;2022-11-20T09:04:37;1.10;98.90
39023;DHT22;25908;51.984;5.928;2022-11-20T09:07:03;1.20;98.70
39023;DHT22;25908;51.984;5.928;2022-11-20T09:09:28;1.30;98.60
39023;DHT22;25908;51.984;5.928;2022-11-20T09:11:54;1.30;98.60
39023;DHT22;25908;51.984;5.928;2022-11-20T09:14:19;1.40;98.60
39023;DHT22;25908;51.984;5.928;2022-11-20T09:16:46;1.40;98.70
39023;DHT22;25908;51.984;5.928;2022-11-20T09:19:12;1.40;98.90
39023;DHT22;25908;51.984;5.928;2022-11-20T09:21:37;1.40;98.80
39023;DHT22;25908;51.984;5.928;2022-11-20T09:24:04;1.50;98.80
39023;DHT22;25908;51.984;5.928;2022-11-20T09:26:30;1.40;98.70
39023;DHT22;25908;51.984;5.928;2022-11-20T09:28:55;1.40;98.90
39023;DHT22;25908;51.984;5.928;2022-11-20T09:31:25;1.50;99.10
39023;DHT22;25908;51.984;5.928;2022-11-20T09:33:51;1.50;99.30
39023;DHT22;25908;51.984;5.928;2022-11-20T09:36:17;1.50;99.40
39023;DHT22;25908;51.984;5.928;2022-11-20T09:38:47;1.50;99.50
39023;DHT22;25908;51.984;5.928;2022-11-20T09:44:38;1.60;99.30
39023;DHT22;25908;51.984;5.928;2022-11-20T09:53:12;1.80;99.60
39023;DHT22;25908;51.984;5.928;2022-11-20T09:55:39;1.80;99.60
39023;DHT22;25908;51.984;5.928;2022-11-20T09:58:16;1.80;99.70
39023;DHT22;25908;51.984;5.928;2022-11-20T10:00:43;1.80;99.70
39023;DHT22;25908;51.984;5.928;2022-11-20T10:03:30;1.90;99.80
39023;DHT22;25908;51.984;5.928;2022-11-20T10:06:02;1.90;99.90
39023;DHT22;25908;51.984;5.928;2022-11-20T10:08:35;1.90;99.90
39023;DHT22;25908;51.984;5.928;2022-11-20T10:14:05;2.00;99.80
39023;DHT22;25908;51.984;5.928;2022-11-20T10:16:53;2.10;99.80
39023;DHT22;25908;51.984;5.928;2022-11-20T10:22:20;2.20;99.80
39023;DHT22;25908;51.984;5.928;2022-11-20T10:25:00;2.20;99.80
39023;DHT22;25908;51.984;5.928;2022-11-20T10:32:40;2.50;99.80
39023;DHT22;25908;51.984;5.928;2022-11-20T10:35:39;2.60;99.70
39023;DHT22;25908;51.984;5.928;2022-11-20T10:38:21;2.70;99.60
39023;DHT22;25908;51.984;5.928;2022-11-20T10:40:57;2.80;99.50
39023;DHT22;25908;51.984;5.928;2022-11-20T10:43:45;2.90;99.60
39023;DHT22;25908;51.984;5.928;2022-11-20T10:46:18;3.00;99.50
39023;DHT22;25908;51.984;5.928;2022-11-20T10:48:46;3.00;99.40
39023;DHT22;25908;51.984;5.928;2022-11-20T10:56:46;3.10;99.60
39023;DHT22;25908;51.984;5.928;2022-11-20T10:59:26;3.20;99.70
39023;DHT22;25908;51.984;5.928;2022-11-20T11:01:53;3.30;99.70
39023;DHT22;25908;51.984;5.928;2022-11-20T11:06:58;3.40;99.60
39023;DHT22;25908;51.984;5.928;2022-11-20T11:09:34;3.40;99.70
39023;DHT22;25908;51.984;5.928;2022-11-20T11:12:01;3.40;99.70
39023;DHT22;25908;51.984;5.928;2022-11-20T11:14:44;3.40;99.80
39023;DHT22;25908;51.984;5.928;2022-11-20T11:17:32;3.40;99.90
39023;DHT22;25908;51.984;5.928;2022-11-20T11:20:14;3.40;99.90
39023;DHT22;25908;51.984;5.928;2022-11-20T11:22:47;3.40;99.90
39023;DHT22;25908;51.984;5.928;2022-11-20T11:25:55;3.40;99.90
39023;DHT22;25908;51.984;5.928;2022-11-20T11:28:22;3.40;99.90
39023;DHT22;25908;51.984;5.928;2022-11-20T11:30:50;3.40;99.90
39023;DHT22;25908;51.984;5.928;2022-11-20T11:33:24;3.40;99.90
39023;DHT22;25908;51.984;5.928;2022-11-20T11:35:56;3.50;99.90
39023;DHT22;25908;51.984;5.928;2022-11-20T11:38:40;3.50;99.90
39023;DHT22;25908;51.984;5.928;2022-11-20T11:41:15;3.50;99.90
39023;DHT22;25908;51.984;5.928;2022-11-20T11:44:00;3.50;99.90
39023;DHT22;25908;51.984;5.928;2022-11-20T11:46:53;3.60;99.90
39023;DHT22;25908;51.984;5.928;2022-11-20T11:49:20;3.60;99.90
39023;DHT22;25908;51.984;5.928;2022-11-20T11:52:42;3.60;99.90
39023;DHT22;25908;51.984;5.928;2022-11-20T11:54:55;3.70;99.90
39023;DHT22;25908;51.984;5.928;2022-11-20T11:57:45;3.70;99.90
39023;DHT22;25908;51.984;5.928;2022-11-20T12:00:14;3.80;99.90
39023;DHT22;25908;51.984;5.928;2022-11-20T12:05:40;3.80;99.90
39023;DHT22;25908;51.984;5.928;2022-11-20T12:08:24;3.80;99.90
39023;DHT22;25908;51.984;5.928;2022-11-20T12:10:56;3.90;99.90
39023;DHT22;25908;51.984;5.928;2022-11-20T12:16:18;3.90;99.90
39023;DHT22;25908;51.984;5.928;2022-11-20T12:18:49;4.00;99.90
39023;DHT22;25908;51.984;5.928;2022-11-20T12:32:01;3.90;99.90
39023;DHT22;25908;51.984;5.928;2022-11-20T12:34:47;3.80;99.90
39023;DHT22;25908;51.984;5.928;2022-11-20T12:37:31;3.80;99.90
39023;DHT22;25908;51.984;5.928;2022-11-20T13:05:04;4.10;99.90
39023;DHT22;25908;51.984;5.928;2022-11-20T13:07:33;4.20;99.90
39023;DHT22;25908;51.984;5.928;2022-11-20T13:10:00;4.20;99.90
39023;DHT22;25908;51.984;5.928;2022-11-20T13:12:34;4.20;99.90
39023;DHT22;25908;51.984;5.928;2022-11-20T13:15:26;4.20;99.90
39023;DHT22;25908;51.984;5.928;2022-11-20T13:17:56;4.20;99.90
39023;DHT22;25908;51.984;5.928;2022-11-20T13:20:23;4.30;99.90
39023;DHT22;25908;51.984;5.928;2022-11-20T13:22:51;4.20;99.90
39023;DHT22;25908;51.984;5.928;2022-11-20T13:25:28;4.30;99.90
39023;DHT22;25908;51.984;5.928;2022-11-20T13:27:57;4.20;99.90
39023;DHT22;25908;51.984;5.928;2022-11-20T13:30:27;4.20;99.90
39023;DHT22;25908;51.984;5.928;2022-11-20T13:33:02;4.20;99.90
39023;DHT22;25908;51.984;5.928;2022-11-20T13:35:31;4.10;99.90
39023;DHT22;25908;51.984;5.928;2022-11-20T13:38:08;4.10;99.90
39023;DHT22;25908;51.984;5.928;2022-11-20T13:40:37;4.10;99.90
39023;DHT22;25908;51.984;5.928;2022-11-20T13:43:16;4.00;99.90
39023;DHT22;25908;51.984;5.928;2022-11-20T13:45:57;4.10;99.90
39023;DHT22;25908;51.984;5.928;2022-11-20T13:48:26;4.10;99.90
39023;DHT22;25908;51.984;5.928;2022-11-20T13:51:07;4.10;99.90
39023;DHT22;25908;51.984;5.928;2022-11-20T13:53:48;4.10;99.90
39023;DHT22;25908;51.984;5.928;2022-11-20T13:58:59;4.10;99.90
39023;DHT22;25908;51.984;5.928;2022-11-20T14:01:29;4.10;99.90
39023;DHT22;25908;51.984;5.928;2022-11-20T14:04:05;4.10;99.90
39023;DHT22;25908;51.984;5.928;2022-11-20T14:06:34;4.20;99.90
39023;DHT22;25908;51.984;5.928;2022-11-20T14:09:03;4.20;99.90
39023;DHT22;25908;51.984;5.928;2022-11-20T14:11:30;4.20;99.90
39023;DHT22;25908;51.984;5.928;2022-11-20T14:14:19;4.20;99.90
39023;DHT22;25908;51.984;5.928;2022-11-20T14:16:46;4.20;99.90
39023;DHT22;25908;51.984;5.928;2022-11-20T14:21:44;4.10;99.90
39023;DHT22;25908;51.984;5.928;2022-11-20T14:24:11;4.10;99.90
39023;DHT22;25908;51.984;5.928;2022-11-20T14:26:45;4.10;99.90
39023;DHT22;25908;51.984;5.928;2022-11-20T14:29:22;4.20;99.90
39023;DHT22;25908;51.984;5.928;2022-11-20T14:31:52;4.20;99.90
39023;DHT22;25908;51.984;5.928;2022-11-20T14:34:21;4.20;99.90
39023;DHT22;25908;51.984;5.928;2022-11-20T14:36:47;4.20;99.90
39023;DHT22;25908;51.984;5.928;2022-11-20T14:39:28;4.20;99.90
39023;DHT22;25908;51.984;5.928;2022-11-20T14:41:55;4.20;99.90
39023;DHT22;25908;51.984;5.928;2022-11-20T14:44:25;4.20;99.90
39023;DHT22;25908;51.984;5.928;2022-11-20T14:46:52;4.20;99.90
39023;DHT22;25908;51.984;5.928;2022-11-20T14:49:19;4.30;99.90
39023;DHT22;25908;51.984;5.928;2022-11-20T14:51:46;4.40;99.90
39023;DHT22;25908;51.984;5.928;2022-11-20T14:54:14;4.40;99.90
39023;DHT22;25908;51.984;5.928;2022-11-20T14:56:41;4.40;99.90
39023;DHT22;25908;51.984;5.928;2022-11-20T14:59:08;4.40;99.90
39023;DHT22;25908;51.984;5.928;2022-11-20T15:01:34;4.50;99.90
39023;DHT22;25908;51.984;5.928;2022-11-20T15:04:09;4.50;99.90
39023;DHT22;25908;51.984;5.928;2022-11-20T15:06:35;4.50;99.90
39023;DHT22;25908;51.984;5.928;2022-11-20T15:09:03;4.50;99.90
39023;DHT22;25908;51.984;5.928;2022-11-20T15:11:32;4.50;99.90
39023;DHT22;25908;51.984;5.928;2022-11-20T15:14:02;4.50;99.90
39023;DHT22;25908;51.984;5.928;2022-11-20T15:16:29;4.50;99.90
39023;DHT22;25908;51.984;5.928;2022-11-20T15:18:55;4.50;99.90
39023;DHT22;25908;51.984;5.928;2022-11-20T15:21:21;4.50;99.90
39023;DHT22;25908;51.984;5.928;2022-11-20T15:23:47;4.50;99.90
39023;DHT22;25908;51.984;5.928;2022-11-20T15:26:14;4.50;99.90
39023;DHT22;25908;51.984;5.928;2022-11-20T15:28:42;4.50;99.90
39023;DHT22;25908;51.984;5.928;2022-11-20T15:31:13;4.50;99.90
39023;DHT22;25908;51.984;5.928;2022-11-20T15:33:38;4.50;99.90
39023;DHT22;25908;51.984;5.928;2022-11-20T15:36:04;4.50;99.90
39023;DHT22;25908;51.984;5.928;2022-11-20T15:38:30;4.50;99.90
39023;DHT22;25908;51.984;5.928;2022-11-20T15:40:56;4.50;99.90
39023;DHT22;25908;51.984;5.928;2022-11-20T15:43:22;4.50;99.90
39023;DHT22;25908;51.984;5.928;2022-11-20T15:46:03;4.50;99.90
39023;DHT22;25908;51.984;5.928;2022-11-20T15:48:34;4.50;99.90
39023;DHT22;25908;51.984;5.928;2022-11-20T15:53:32;4.40;99.90
39023;DHT22;25908;51.984;5.928;2022-11-20T15:55:57;4.40;99.90
39023;DHT22;25908;51.984;5.928;2022-11-20T15:58:23;4.40;99.90
39023;DHT22;25908;51.984;5.928;2022-11-20T16:00:49;4.40;99.90
39023;DHT22;25908;51.984;5.928;2022-11-20T16:03:16;4.40;99.90
39023;DHT22;25908;51.984;5.928;2022-11-20T16:05:42;4.40;99.90
39023;DHT22;25908;51.984;5.928;2022-11-20T16:08:08;4.40;99.90
39023;DHT22;25908;51.984;5.928;2022-11-20T16:10:33;4.40;99.90
39023;DHT22;25908;51.984;5.928;2022-11-20T16:12:59;4.40;99.90
39023;DHT22;25908;51.984;5.928;2022-11-20T16:15:50;4.40;99.90
39023;DHT22;25908;51.984;5.928;2022-11-20T16:18:19;4.40;99.90
39023;DHT22;25908;51.984;5.928;2022-11-20T16:20:48;4.40;99.90
39023;DHT22;25908;51.984;5.928;2022-11-20T16:23:14;4.40;99.90
39023;DHT22;25908;51.984;5.928;2022-11-20T16:25:41;4.40;99.90
39023;DHT22;25908;51.984;5.928;2022-11-20T16:28:07;4.40;99.90
39023;DHT22;25908;51.984;5.928;2022-11-20T16:30:33;4.50;99.90
39023;DHT22;25908;51.984;5.928;2022-11-20T16:33:00;4.40;99.90
39023;DHT22;25908;51.984;5.928;2022-11-20T16:35:27;4.40;99.90
39023;DHT22;25908;51.984;5.928;2022-11-20T16:37:54;4.40;99.90
39023;DHT22;25908;51.984;5.928;2022-11-20T16:40:23;4.40;99.90
39023;DHT22;25908;51.984;5.928;2022-11-20T16:42:49;4.40;99.90
39023;DHT22;25908;51.984;5.928;2022-11-20T16:45:15;4.50;99.90
39023;DHT22;25908;51.984;5.928;2022-11-20T16:47:41;4.50;99.90
39023;DHT22;25908;51.984;5.928;2022-11-20T16:50:07;4.50;99.90
39023;DHT22;25908;51.984;5.928;2022-11-20T16:52:32;4.50;99.90
39023;DHT22;25908;51.984;5.928;2022-11-20T16:54:58;4.50;99.90
39023;DHT22;25908;51.984;5.928;2022-11-20T16:57:26;4.50;99.90
39023;DHT22;25908;51.984;5.928;2022-11-20T16:59:52;4.50;99.90
39023;DHT22;25908;51.984;5.928;2022-11-20T17:02:17;4.50;99.90
39023;DHT22;25908;51.984;5.928;2022-11-20T17:04:43;4.50;99.90
39023;DHT22;25908;51.984;5.928;2022-11-20T17:07:08;4.50;99.90
39023;DHT22;25908;51.984;5.928;2022-11-20T17:09:35;4.50;99.90
39023;DHT22;25908;51.984;5.928;2022-11-20T17:12:00;4.50;99.90
39023;DHT22;25908;51.984;5.928;2022-11-20T17:14:26;4.50;99.90
39023;DHT22;25908;51.984;5.928;2022-11-20T17:16:51;4.50;99.90